Time;durP1;ratioP1;P1;durP2;ratioP2;P2;SDS_P1;SDS_P2;PMS_P1;PMS_P2;Temp;Humidity;BMP_temperature;BMP_pressure;BME280_temperature;BME280_humidity;BME280_pressure;Samples;Min_cycle;Max_cycle;Signal;HPM_P1;HPM_P2
2023/02/03 00:01:32;;;;;;;2.35;1.67;;;8.20;99.90;;;;;;4965168;28;20044;-69
2023/02/03 00:03:57;;;;;;;1.25;1.02;;;8.10;99.90;;;;;;4970260;28;20027;-69
2023/02/03 00:06:24;;;;;;;1.55;1.15;;;8.10;99.90;;;;;;4966550;28;20107;-69
2023/02/03 00:08:58;;;;;;;5.15;2.00;;;8.10;99.90;;;;;;4952133;28;20035;-69
2023/02/03 00:11:24;;;;;;;5.53;1.42;;;8.10;99.90;;;;;;4966357;28;20038;-69
2023/02/03 00:13:50;;;;;;;1.83;1.10;;;8.10;99.90;;;;;;4952471;28;20035;-70
2023/02/03 00:16:16;;;;;;;1.90;1.52;;;8.10;99.90;;;;;;4949836;28;20035;-69
2023/02/03 00:18:41;;;;;;;4.75;1.65;;;8.10;99.90;;;;;;4951256;28;20122;-69
2023/02/03 00:21:07;;;;;;;1.88;1.17;;;8.10;99.90;;;;;;4968421;28;20921;-69
2023/02/03 00:23:33;;;;;;;2.22;1.35;;;8.10;99.90;;;;;;4949798;28;20487;-70
2023/02/03 00:26:15;;;;;;;7.30;1.92;;;8.10;99.90;;;;;;4952364;28;20035;-69
2023/02/03 00:28:41;;;;;;;4.32;1.48;;;8.10;99.90;;;;;;4951239;28;20037;-70
2023/02/03 00:31:16;;;;;;;4.57;1.48;;;8.10;99.90;;;;;;4950892;28;20074;-69
2023/02/03 00:33:41;;;;;;;1.65;1.30;;;8.00;99.90;;;;;;4950874;28;20030;-70
2023/02/03 00:36:08;;;;;;;12.98;2.05;;;8.10;99.90;;;;;;4950679;28;20035;-69
2023/02/03 00:38:33;;;;;;;7.30;2.03;;;8.10;99.90;;;;;;4967183;28;20039;-69
2023/02/03 00:40:59;;;;;;;6.07;1.15;;;8.00;99.90;;;;;;4936794;28;20364;-69
2023/02/03 00:43:25;;;;;;;8.48;1.75;;;8.00;99.90;;;;;;4965523;28;20030;-70
2023/02/03 00:45:51;;;;;;;7.85;1.90;;;8.00;99.90;;;;;;4969468;28;20031;-70
2023/02/03 00:48:16;;;;;;;1.95;1.23;;;8.00;99.90;;;;;;4965184;28;20394;-70
2023/02/03 00:50:46;;;;;;;3.70;1.42;;;8.00;99.90;;;;;;4952759;28;20110;-70
2023/02/03 00:53:11;;;;;;;5.15;1.95;;;7.90;99.90;;;;;;4947602;28;20483;-69
2023/02/03 00:55:37;;;;;;;8.07;1.35;;;7.90;99.90;;;;;;4969453;28;20046;-69
2023/02/03 00:58:03;;;;;;;5.18;1.55;;;8.00;99.90;;;;;;4964944;28;20054;-70
2023/02/03 01:00:29;;;;;;;1.88;0.95;;;8.10;99.90;;;;;;4951927;28;20089;-69
2023/02/03 01:02:54;;;;;;;2.28;1.38;;;8.10;99.90;;;;;;4964848;28;20043;-69
2023/02/03 01:05:20;;;;;;;4.45;1.35;;;8.20;99.90;;;;;;4969118;28;20058;-69
2023/02/03 01:07:45;;;;;;;5.65;1.17;;;8.20;99.90;;;;;;4964825;28;20113;-69
2023/02/03 01:10:13;;;;;;;9.35;1.50;;;8.30;99.90;;;;;;4951955;28;20059;-69
2023/02/03 01:12:39;;;;;;;2.45;1.38;;;8.40;99.90;;;;;;4964961;28;20126;-69
2023/02/03 01:15:05;;;;;;;1.83;1.00;;;8.40;99.90;;;;;;4951596;28;20118;-69
2023/02/03 01:17:31;;;;;;;2.20;0.98;;;8.40;99.90;;;;;;4947438;28;20035;-68
2023/02/03 01:19:57;;;;;;;1.38;0.85;;;8.50;99.90;;;;;;4951349;28;20039;-69
2023/02/03 01:22:22;;;;;;;1.15;0.82;;;8.40;99.90;;;;;;4947297;28;20026;-69
2023/02/03 01:24:48;;;;;;;9.25;2.20;;;8.40;99.90;;;;;;4952891;28;20070;-69
2023/02/03 01:27:14;;;;;;;1.45;1.10;;;8.40;99.90;;;;;;4963061;28;20031;-69
2023/02/03 01:29:39;;;;;;;2.97;1.48;;;8.40;99.90;;;;;;4972675;28;20043;-69
2023/02/03 01:32:05;;;;;;;1.50;1.33;;;8.30;99.90;;;;;;4943111;28;20096;-69
2023/02/03 01:34:31;;;;;;;1.77;0.90;;;8.20;99.90;;;;;;4972053;28;20030;-69
2023/02/03 01:36:56;;;;;;;5.43;1.20;;;8.20;99.90;;;;;;4960710;28;20456;-70
2023/02/03 01:39:22;;;;;;;1.00;0.55;;;8.20;99.90;;;;;;4972531;28;20041;-69
2023/02/03 01:41:49;;;;;;;2.38;1.00;;;8.20;99.90;;;;;;4961142;28;20136;-69
2023/02/03 01:44:52;;;;;;;1.83;0.95;;;8.20;99.90;;;;;;4971594;28;20541;-69
2023/02/03 01:47:32;;;;;;;0.82;0.60;;;8.20;99.90;;;;;;4963852;28;20414;-69
2023/02/03 01:50:17;;;;;;;0.90;0.50;;;8.20;99.90;;;;;;4968812;28;20027;-69
2023/02/03 01:52:48;;;;;;;0.77;0.57;;;8.30;99.90;;;;;;4964015;28;20057;-69
2023/02/03 01:55:19;;;;;;;0.50;0.50;;;8.20;99.90;;;;;;4967082;28;20488;-70
2023/02/03 01:57:58;;;;;;;0.60;0.55;;;8.20;99.90;;;;;;4947273;28;20592;-69
2023/02/03 02:00:24;;;;;;;2.25;0.75;;;8.30;99.90;;;;;;4951981;28;20039;-68
2023/02/03 02:02:50;;;;;;;1.63;0.68;;;8.20;99.90;;;;;;4963659;28;20042;-69
2023/02/03 02:05:53;;;;;;;1.45;0.68;;;8.20;99.90;;;;;;4942211;28;20023;-69
2023/02/03 02:08:21;;;;;;;0.82;0.52;;;8.20;99.90;;;;;;4938646;28;20035;-69
2023/02/03 02:10:47;;;;;;;2.05;0.80;;;8.30;99.90;;;;;;4933561;29;20028;-69
2023/02/03 02:13:14;;;;;;;1.75;0.50;;;8.20;99.90;;;;;;4960055;28;20066;-69
2023/02/03 02:16:04;;;;;;;1.80;0.52;;;8.20;99.90;;;;;;4955447;28;20514;-69
2023/02/03 02:18:35;;;;;;;0.52;0.45;;;8.20;99.90;;;;;;4943089;28;20081;-69
2023/02/03 02:21:32;;;;;;;2.90;0.98;;;8.10;99.90;;;;;;4967647;28;20097;-69
2023/02/03 02:24:48;;;;;;;1.17;0.65;;;8.20;99.90;;;;;;4961225;28;20450;-69
2023/02/03 02:28:03;;;;;;;2.30;1.33;;;8.10;99.90;;;;;;4962310;28;20098;-69
2023/02/03 02:30:49;;;;;;;1.55;0.85;;;8.10;99.90;;;;;;4968604;28;20050;-70
2023/02/03 02:34:13;;;;;;;5.32;0.45;;;8.10;99.90;;;;;;4950034;28;20022;-69
2023/02/03 02:37:00;;;;;;;4.57;0.98;;;8.10;99.90;;;;;;4907190;29;20048;-69
2023/02/03 02:39:48;;;;;;;2.22;1.40;;;8.00;99.90;;;;;;4862594;29;20029;-69
2023/02/03 02:43:01;;;;;;;1.17;0.60;;;8.00;99.90;;;;;;4911372;29;20132;-69
2023/02/03 02:45:38;;;;;;;1.58;0.60;;;8.00;99.90;;;;;;4852749;29;20043;-69
2023/02/03 02:48:27;;;;;;;3.55;0.85;;;8.10;99.90;;;;;;4864997;29;20543;-69
2023/02/03 02:50:56;;;;;;;0.93;0.47;;;8.00;99.90;;;;;;4897755;29;20159;-69
2023/02/03 02:53:28;;;;;;;1.55;0.80;;;8.00;99.90;;;;;;4884941;29;20032;-70
2023/02/03 02:55:56;;;;;;;1.60;0.68;;;8.00;99.90;;;;;;4912938;29;20595;-69
2023/02/03 02:58:23;;;;;;;1.63;0.60;;;8.00;99.90;;;;;;4885075;29;20039;-69
2023/02/03 03:00:50;;;;;;;0.73;0.43;;;8.00;99.90;;;;;;4897601;29;20044;-69
2023/02/03 03:03:22;;;;;;;1.02;0.60;;;8.00;99.90;;;;;;4875998;29;20036;-69
2023/02/03 03:06:07;;;;;;;1.15;0.60;;;8.10;99.90;;;;;;4880707;29;20107;-69
2023/02/03 03:09:01;;;;;;;0.93;0.73;;;8.10;99.90;;;;;;4945940;28;20066;-69
2023/02/03 03:11:36;;;;;;;0.63;0.60;;;8.00;99.90;;;;;;4964762;28;20051;-69
2023/02/03 03:14:05;;;;;;;3.60;0.60;;;8.00;99.90;;;;;;4944463;28;20039;-69
2023/02/03 03:16:36;;;;;;;0.73;0.40;;;8.00;99.90;;;;;;4935136;28;20027;-69
2023/02/03 03:19:12;;;;;;;3.38;0.50;;;8.10;99.90;;;;;;4946767;28;20387;-69
2023/02/03 03:21:48;;;;;;;1.02;0.60;;;8.10;99.90;;;;;;4952543;28;20038;-69
2023/02/03 03:24:20;;;;;;;1.63;0.22;;;8.20;99.90;;;;;;4949633;28;20050;-69
2023/02/03 03:27:00;;;;;;;1.58;0.82;;;8.30;99.90;;;;;;4953579;28;20043;-69
2023/02/03 03:29:47;;;;;;;1.85;0.80;;;8.20;99.90;;;;;;4944244;29;20655;-69
2023/02/03 03:32:13;;;;;;;0.70;0.40;;;8.20;99.90;;;;;;4957490;28;20076;-69
2023/02/03 03:34:40;;;;;;;1.88;0.68;;;8.10;99.90;;;;;;4940959;29;20525;-69
2023/02/03 03:37:21;;;;;;;0.35;0.35;;;8.20;99.90;;;;;;4955413;28;20035;-69
2023/02/03 03:40:12;;;;;;;2.80;1.48;;;8.10;99.90;;;;;;4946147;29;20403;-69
2023/02/03 03:42:45;;;;;;;2.63;0.73;;;8.20;99.90;;;;;;4922358;29;20423;-69
2023/02/03 03:45:33;;;;;;;1.23;0.57;;;8.20;99.90;;;;;;4947043;28;20027;-70
2023/02/03 03:48:26;;;;;;;0.70;0.20;;;8.10;99.90;;;;;;4968384;28;20059;-69
2023/02/03 03:51:15;;;;;;;0.40;0.30;;;8.10;99.90;;;;;;4949777;28;20046;-69
2023/02/03 03:53:44;;;;;;;0.22;0.20;;;8.10;99.90;;;;;;4951197;28;20031;-69
2023/02/03 03:56:18;;;;;;;0.80;0.30;;;8.10;99.90;;;;;;4948906;28;20041;-69
2023/02/03 03:58:48;;;;;;;1.92;0.90;;;8.00;99.90;;;;;;4947636;28;20038;-70
2023/02/03 04:01:15;;;;;;;2.13;1.02;;;8.00;99.90;;;;;;4933632;28;20069;-70
2023/02/03 04:03:47;;;;;;;1.45;0.73;;;8.00;99.90;;;;;;4946484;28;20035;-68
2023/02/03 04:06:14;;;;;;;1.23;0.93;;;8.00;99.90;;;;;;4965939;28;20030;-68
2023/02/03 04:08:39;;;;;;;1.02;0.65;;;8.00;99.90;;;;;;4948117;28;20042;-69
2023/02/03 04:11:05;;;;;;;0.45;0.45;;;8.00;99.90;;;;;;4932722;28;20031;-69
2023/02/03 04:13:31;;;;;;;1.50;0.70;;;7.90;99.90;;;;;;4963639;28;20039;-68
2023/02/03 04:15:57;;;;;;;1.45;0.47;;;7.90;99.90;;;;;;4948384;28;20037;-68
2023/02/03 04:18:23;;;;;;;0.93;0.70;;;7.90;99.90;;;;;;4950233;28;20054;-69
2023/02/03 04:20:49;;;;;;;0.45;0.43;;;7.90;99.90;;;;;;4948371;28;20026;-68
2023/02/03 04:23:15;;;;;;;1.35;0.50;;;7.90;99.90;;;;;;4946472;28;20031;-68
2023/02/03 04:25:40;;;;;;;0.68;0.50;;;7.90;99.90;;;;;;4967084;23;20061;-64
2023/02/03 04:28:06;;;;;;;0.50;0.30;;;7.90;99.90;;;;;;4973270;28;20027;-64
2023/02/03 04:30:32;;;;;;;0.77;0.35;;;7.80;99.90;;;;;;4965720;28;20031;-65
2023/02/03 04:32:58;;;;;;;0.50;0.40;;;7.80;99.90;;;;;;4955987;28;20422;-65
2023/02/03 04:35:24;;;;;;;1.30;0.90;;;7.80;99.90;;;;;;4972036;28;20150;-64
2023/02/03 04:37:49;;;;;;;0.75;0.68;;;7.90;99.90;;;;;;4973143;28;20023;-65
2023/02/03 04:40:16;;;;;;;0.95;0.80;;;8.00;99.90;;;;;;4965552;28;20031;-65
2023/02/03 04:42:41;;;;;;;0.98;0.80;;;8.20;99.90;;;;;;4973058;28;20033;-65
2023/02/03 04:45:10;;;;;;;5.07;1.00;;;8.30;99.90;;;;;;4954889;28;20481;-64
2023/02/03 04:47:38;;;;;;;4.93;1.38;;;8.30;99.90;;;;;;4972993;28;20590;-64
2023/02/03 04:50:04;;;;;;;5.13;1.50;;;8.30;99.90;;;;;;4955112;28;20406;-66
2023/02/03 04:52:30;;;;;;;2.13;0.60;;;8.30;99.90;;;;;;4955586;28;20039;-65
2023/02/03 04:54:56;;;;;;;3.45;0.85;;;8.30;99.90;;;;;;4954251;28;20031;-65
2023/02/03 04:57:21;;;;;;;1.05;0.73;;;8.40;99.90;;;;;;4955437;28;20026;-65
2023/02/03 04:59:47;;;;;;;1.60;0.80;;;8.40;99.90;;;;;;4955000;28;20565;-65
2023/02/03 05:02:13;;;;;;;1.15;0.80;;;8.40;99.90;;;;;;4972762;28;20050;-65
2023/02/03 05:04:39;;;;;;;1.60;0.93;;;8.40;99.90;;;;;;4971345;28;20521;-65
2023/02/03 05:07:04;;;;;;;0.98;0.68;;;8.50;99.90;;;;;;4972701;28;20038;-65
2023/02/03 05:09:30;;;;;;;6.05;1.08;;;8.50;99.90;;;;;;4954821;28;20034;-65
2023/02/03 05:11:55;;;;;;;3.30;1.75;;;8.40;99.90;;;;;;4972493;28;20030;-65
2023/02/03 05:14:21;;;;;;;2.40;0.88;;;8.50;99.90;;;;;;4968927;28;20031;-65
2023/02/03 05:16:47;;;;;;;1.92;1.20;;;8.50;99.90;;;;;;4968180;28;20030;-65
2023/02/03 05:19:13;;;;;;;1.52;1.00;;;8.40;99.90;;;;;;4970239;28;20549;-65
2023/02/03 05:21:38;;;;;;;1.25;1.00;;;8.40;99.90;;;;;;4955146;28;20037;-65
2023/02/03 05:24:06;;;;;;;2.00;1.23;;;8.50;99.90;;;;;;4970651;28;20033;-65
2023/02/03 05:26:34;;;;;;;3.05;0.90;;;8.50;99.90;;;;;;4960091;28;20033;-65
2023/02/03 05:29:00;;;;;;;1.38;0.77;;;8.60;99.90;;;;;;4970664;28;20062;-64
2023/02/03 05:31:26;;;;;;;1.60;1.20;;;8.60;99.90;;;;;;4965055;28;20038;-65
2023/02/03 05:33:51;;;;;;;2.63;0.98;;;8.50;99.90;;;;;;4954352;28;20050;-65
2023/02/03 05:36:17;;;;;;;2.83;1.40;;;8.60;99.90;;;;;;4954292;28;20027;-65
2023/02/03 05:38:43;;;;;;;10.95;2.08;;;8.60;99.90;;;;;;4971646;28;20042;-64
2023/02/03 05:43:56;;;;;;;2.08;1.27;;;8.50;99.90;;;;;;4948434;28;20058;-65
2023/02/03 05:46:21;;;;;;;1.92;1.27;;;8.40;99.90;;;;;;4940295;28;20062;-64
2023/02/03 05:48:47;;;;;;;2.13;1.35;;;8.30;99.90;;;;;;4968392;28;20038;-65
2023/02/03 05:51:13;;;;;;;1.25;0.88;;;8.20;99.90;;;;;;4968682;28;20470;-65
2023/02/03 05:53:38;;;;;;;0.93;0.70;;;8.20;99.90;;;;;;4964482;28;20105;-63
2023/02/03 05:56:05;;;;;;;0.93;0.82;;;8.10;99.90;;;;;;4930832;28;20038;-64
2023/02/03 05:58:30;;;;;;;2.88;1.20;;;8.20;99.90;;;;;;4950051;28;20035;-64
2023/02/03 06:00:56;;;;;;;1.63;1.00;;;8.10;99.90;;;;;;4934253;28;20047;-65
2023/02/03 06:03:22;;;;;;;1.30;0.88;;;8.10;99.90;;;;;;4966107;28;20026;-64
2023/02/03 06:05:47;;;;;;;1.25;1.08;;;8.10;99.90;;;;;;4963947;28;20125;-65
2023/02/03 06:08:14;;;;;;;1.33;0.82;;;8.10;99.90;;;;;;4975106;28;20037;-64
2023/02/03 06:10:39;;;;;;;6.50;1.52;;;8.10;99.90;;;;;;4957712;28;20039;-64
2023/02/03 06:13:11;;;;;;;0.98;0.50;;;8.10;99.90;;;;;;4958266;28;20481;-64
2023/02/03 06:15:38;;;;;;;1.95;1.17;;;8.10;99.90;;;;;;4957461;28;20022;-65
2023/02/03 06:18:04;;;;;;;3.03;0.95;;;8.20;99.90;;;;;;4975334;28;20046;-65
2023/02/03 06:20:30;;;;;;;5.40;0.52;;;8.20;99.90;;;;;;4964254;28;20096;-64
2023/02/03 06:22:55;;;;;;;2.50;0.93;;;8.30;99.90;;;;;;4970728;28;20034;-65
2023/02/03 06:25:23;;;;;;;1.05;0.80;;;8.30;99.90;;;;;;4973407;28;20035;-65
2023/02/03 06:27:49;;;;;;;1.55;0.80;;;8.30;99.90;;;;;;4971410;28;20533;-65
2023/02/03 06:30:16;;;;;;;1.63;0.73;;;8.40;99.90;;;;;;4975143;28;20042;-65
2023/02/03 06:32:42;;;;;;;0.68;0.63;;;8.40;99.90;;;;;;4971536;28;20031;-65
2023/02/03 06:35:08;;;;;;;0.70;0.52;;;8.40;99.90;;;;;;4957564;28;20045;-64
2023/02/03 06:37:34;;;;;;;0.75;0.40;;;8.50;99.90;;;;;;4970966;28;20166;-64
2023/02/03 06:40:01;;;;;;;2.33;1.40;;;8.50;99.90;;;;;;4957241;28;20031;-66
2023/02/03 06:42:27;;;;;;;1.10;0.70;;;8.50;99.90;;;;;;4954965;28;20416;-65
2023/02/03 06:44:53;;;;;;;1.02;0.60;;;8.50;99.90;;;;;;4974712;28;20034;-65
2023/02/03 06:47:19;;;;;;;2.30;1.25;;;8.50;99.90;;;;;;4957234;28;20027;-64
2023/02/03 06:49:45;;;;;;;5.68;0.90;;;8.50;99.90;;;;;;4974816;28;20046;-64
2023/02/03 06:52:11;;;;;;;0.63;0.50;;;8.50;99.90;;;;;;4956706;28;20061;-63
2023/02/03 06:54:36;;;;;;;2.05;0.63;;;8.50;99.90;;;;;;4974361;28;20073;-64
2023/02/03 06:57:03;;;;;;;1.55;0.90;;;8.50;99.90;;;;;;4956858;28;20062;-64
2023/02/03 06:59:28;;;;;;;1.42;0.65;;;8.60;99.90;;;;;;4955433;28;20027;-64
2023/02/03 07:01:54;;;;;;;0.40;0.30;;;8.50;99.90;;;;;;4971439;28;20026;-64
2023/02/03 07:04:20;;;;;;;1.38;0.65;;;8.50;99.90;;;;;;4954838;28;20111;-64
2023/02/03 07:06:45;;;;;;;2.13;0.80;;;8.40;99.90;;;;;;4974405;28;20658;-63
2023/02/03 07:09:11;;;;;;;2.80;0.95;;;8.30;99.90;;;;;;4957272;28;20031;-63
2023/02/03 07:11:38;;;;;;;1.20;0.90;;;8.20;99.90;;;;;;4969436;28;20039;-65
2023/02/03 07:14:03;;;;;;;1.17;0.65;;;8.10;99.90;;;;;;4956008;28;20090;-67
2023/02/03 07:16:30;;;;;;;2.15;0.70;;;8.10;99.90;;;;;;4953314;28;20432;-66
2023/02/03 07:18:56;;;;;;;1.40;0.88;;;8.00;99.90;;;;;;4965661;28;20026;-66
2023/02/03 07:21:22;;;;;;;2.47;0.88;;;8.00;99.90;;;;;;4968415;28;20033;-67
2023/02/03 07:23:48;;;;;;;2.85;0.80;;;7.90;99.90;;;;;;4973743;28;20069;-67
2023/02/03 07:26:15;;;;;;;2.70;1.08;;;7.90;99.90;;;;;;4966521;28;20671;-67
2023/02/03 07:28:41;;;;;;;0.73;0.60;;;7.90;99.90;;;;;;4970327;28;20125;-66
2023/02/03 07:31:09;;;;;;;0.65;0.60;;;8.00;99.90;;;;;;4956703;28;20562;-66
2023/02/03 07:33:35;;;;;;;2.13;0.80;;;7.90;99.90;;;;;;4955447;28;20030;-66
2023/02/03 07:36:02;;;;;;;0.98;0.70;;;7.90;99.90;;;;;;4956606;28;20102;-65
2023/02/03 07:38:28;;;;;;;1.90;1.15;;;7.90;99.90;;;;;;4956024;28;20046;-65
2023/02/03 07:40:54;;;;;;;1.05;0.55;;;7.80;99.90;;;;;;4956503;28;20114;-65
2023/02/03 07:43:21;;;;;;;1.05;0.65;;;7.80;99.90;;;;;;4955511;28;20027;-65
2023/02/03 07:45:46;;;;;;;1.58;1.10;;;7.70;99.90;;;;;;4940148;28;20038;-65
2023/02/03 07:48:13;;;;;;;3.80;0.80;;;7.80;99.90;;;;;;4955880;28;20349;-67
2023/02/03 07:50:39;;;;;;;1.83;1.02;;;7.70;99.90;;;;;;4973282;28;20034;-66
2023/02/03 07:53:06;;;;;;;5.20;1.30;;;7.70;99.90;;;;;;4953010;28;20105;-66
2023/02/03 07:55:32;;;;;;;0.93;0.80;;;7.60;99.90;;;;;;4956056;28;20031;-66
2023/02/03 07:57:58;;;;;;;1.75;1.27;;;7.60;99.90;;;;;;4965957;28;20058;-65
2023/02/03 08:00:25;;;;;;;5.30;1.13;;;7.60;99.90;;;;;;4956088;28;20050;-66
2023/02/03 08:02:51;;;;;;;2.00;1.17;;;7.70;99.90;;;;;;4967475;28;20027;-66
2023/02/03 08:05:18;;;;;;;2.47;1.20;;;7.70;99.90;;;;;;4972730;28;20034;-66
2023/02/03 08:07:44;;;;;;;2.50;1.20;;;7.80;99.90;;;;;;4939495;28;20030;-66
2023/02/03 08:10:14;;;;;;;2.03;1.20;;;7.80;99.90;;;;;;4955916;28;20042;-66
2023/02/03 08:12:41;;;;;;;2.28;1.05;;;7.90;99.90;;;;;;4967826;28;20187;-67
2023/02/03 08:15:09;;;;;;;0.40;0.40;;;7.90;99.90;;;;;;4971012;28;20031;-66
2023/02/03 08:17:38;;;;;;;0.70;0.55;;;8.00;99.90;;;;;;4968525;28;20054;-66
2023/02/03 08:20:06;;;;;;;6.30;0.63;;;8.00;99.90;;;;;;4956028;28;20073;-66
2023/02/03 08:22:31;;;;;;;4.28;1.00;;;8.10;99.90;;;;;;4969263;28;20038;-67
2023/02/03 08:24:57;;;;;;;5.55;1.40;;;8.10;99.90;;;;;;4972659;28;20521;-66
2023/02/03 08:27:23;;;;;;;0.75;0.70;;;8.10;99.90;;;;;;4966299;28;20525;-66
2023/02/03 08:29:49;;;;;;;0.65;0.40;;;8.20;99.90;;;;;;4955570;28;20557;-66
2023/02/03 08:32:20;;;;;;;1.75;0.63;;;8.20;99.90;;;;;;4965408;28;20034;-67
2023/02/03 08:34:46;;;;;;;1.05;0.30;;;8.30;99.90;;;;;;4961523;28;22278;-67
2023/02/03 08:37:14;;;;;;;1.75;0.73;;;8.40;99.90;;;;;;4970974;28;20473;-67
2023/02/03 08:39:40;;;;;;;0.90;0.40;;;8.40;99.90;;;;;;4969815;28;20035;-67
2023/02/03 08:42:06;;;;;;;4.35;0.68;;;8.50;99.90;;;;;;4969102;28;20030;-66
2023/02/03 08:44:33;;;;;;;0.98;0.50;;;8.60;99.90;;;;;;4953288;28;20039;-66
2023/02/03 08:46:59;;;;;;;1.10;0.40;;;8.70;99.90;;;;;;4968886;28;20030;-66
2023/02/03 08:49:28;;;;;;;1.25;0.73;;;8.70;99.90;;;;;;4954312;28;20118;-66
2023/02/03 08:51:55;;;;;;;0.75;0.60;;;8.80;99.90;;;;;;4972648;28;20046;-66
2023/02/03 08:54:21;;;;;;;0.80;0.28;;;8.80;99.90;;;;;;4954581;28;20054;-66
2023/02/03 08:56:47;;;;;;;1.27;0.60;;;8.90;99.90;;;;;;4967734;28;20062;-66
2023/02/03 08:59:14;;;;;;;1.08;0.70;;;8.90;99.90;;;;;;4955047;28;20090;-66
2023/02/03 09:01:43;;;;;;;0.65;0.60;;;8.90;99.90;;;;;;4953690;28;20037;-66
2023/02/03 09:04:09;;;;;;;2.80;0.73;;;8.90;99.90;;;;;;4953359;28;20558;-65
2023/02/03 09:06:36;;;;;;;1.42;0.82;;;8.90;99.90;;;;;;4954322;28;20084;-65
2023/02/03 09:09:02;;;;;;;2.28;0.60;;;9.00;99.90;;;;;;4960860;28;20066;-65
2023/02/03 09:11:28;;;;;;;0.70;0.40;;;9.00;99.90;;;;;;4956912;28;20149;-66
2023/02/03 09:13:55;;;;;;;0.60;0.60;;;9.00;99.90;;;;;;4954108;28;20443;-66
2023/02/03 09:16:21;;;;;;;0.80;0.43;;;9.00;99.90;;;;;;4954673;28;20034;-66
2023/02/03 09:18:48;;;;;;;1.65;0.68;;;9.00;99.90;;;;;;4971925;28;20035;-66
2023/02/03 09:21:15;;;;;;;2.78;0.77;;;9.00;99.90;;;;;;4971295;28;20869;-66
2023/02/03 09:23:42;;;;;;;0.75;0.52;;;9.10;99.90;;;;;;4954582;28;20023;-66
2023/02/03 09:26:12;;;;;;;1.98;1.23;;;9.00;99.90;;;;;;4966287;28;20117;-67
2023/02/03 09:28:38;;;;;;;0.60;0.45;;;9.10;99.90;;;;;;4954849;28;20035;-66
2023/02/03 09:31:10;;;;;;;1.13;0.73;;;9.10;99.90;;;;;;4971068;28;20042;-64
2023/02/03 09:33:36;;;;;;;3.05;0.68;;;9.10;99.90;;;;;;4954430;28;20031;-65
2023/02/03 09:36:03;;;;;;;0.65;0.55;;;9.10;99.90;;;;;;4966402;28;20035;-65
2023/02/03 09:38:29;;;;;;;3.83;0.70;;;9.10;99.90;;;;;;4954274;28;20494;-65
2023/02/03 09:41:18;;;;;;;1.30;0.50;;;9.10;99.90;;;;;;4953732;28;20062;-65
2023/02/03 09:44:16;;;;;;;0.30;0.25;;;9.20;99.90;;;;;;4955004;28;20031;-66
2023/02/03 09:46:49;;;;;;;0.77;0.38;;;9.20;99.90;;;;;;4957235;28;20035;-65
2023/02/03 09:49:27;;;;;;;0.75;0.43;;;9.20;99.90;;;;;;4953899;28;20050;-65
2023/02/03 09:52:11;;;;;;;0.13;0.13;;;9.20;99.90;;;;;;4954955;28;20038;-67
2023/02/03 09:54:56;;;;;;;1.67;0.60;;;9.30;99.90;;;;;;4953997;28;20114;-66
2023/02/03 09:57:26;;;;;;;0.60;0.60;;;9.40;99.90;;;;;;4936686;28;20113;-67
2023/02/03 09:59:56;;;;;;;1.45;0.52;;;9.40;99.90;;;;;;4950891;28;20474;-67
2023/02/03 10:02:54;;;;;;;1.25;0.35;;;9.40;99.90;;;;;;4952560;28;20031;-66
2023/02/03 10:05:39;;;;;;;3.50;0.45;;;9.40;99.90;;;;;;4945909;28;20034;-66
2023/02/03 10:08:28;;;;;;;0.30;0.30;;;9.40;99.90;;;;;;4952988;28;20058;-65
2023/02/03 10:11:23;;;;;;;6.18;0.68;;;9.30;99.90;;;;;;4955396;28;20110;-66
2023/02/03 10:14:11;;;;;;;0.55;0.43;;;9.40;99.90;;;;;;4966787;28;20035;-66
2023/02/03 10:16:57;;;;;;;0.85;0.50;;;9.30;99.90;;;;;;4956853;28;20039;-68
2023/02/03 10:19:44;;;;;;;0.57;0.40;;;9.30;99.90;;;;;;4971232;28;20031;-65
2023/02/03 10:22:28;;;;;;;1.35;0.60;;;9.40;99.90;;;;;;4955728;28;20034;-65
2023/02/03 10:25:05;;;;;;;0.30;0.15;;;9.50;99.90;;;;;;4952833;28;20026;-65
2023/02/03 10:27:33;;;;;;;0.75;0.38;;;9.50;99.90;;;;;;4950936;28;20042;-65
2023/02/03 10:30:22;;;;;;;2.38;0.90;;;9.50;99.90;;;;;;4951916;28;20497;-65
2023/02/03 10:33:01;;;;;;;0.57;0.40;;;9.50;99.90;;;;;;4962614;28;20781;-66
2023/02/03 10:35:38;;;;;;;1.40;0.40;;;9.60;99.90;;;;;;4927038;28;20560;-66
2023/02/03 10:38:09;;;;;;;0.70;0.50;;;9.50;99.90;;;;;;4944153;28;20402;-66
2023/02/03 10:40:36;;;;;;;1.80;0.35;;;9.50;99.90;;;;;;4934911;28;20039;-66
2023/02/03 10:45:45;;;;;;;0.70;0.45;;;9.50;99.90;;;;;;4955324;28;20023;-65
2023/02/03 10:48:17;;;;;;;0.32;0.30;;;9.40;99.90;;;;;;4948743;28;20037;-65
2023/02/03 10:50:46;;;;;;;;;;;9.40;99.90;;;;;;4933370;28;20039;-66
2023/02/03 10:53:21;;;;;;;1.95;0.35;;;9.30;99.90;;;;;;4930507;28;19980;-65
2023/02/03 10:56:12;;;;;;;4.15;1.02;;;9.30;99.90;;;;;;4971690;28;20117;-74
2023/02/03 10:58:46;;;;;;;;;;;9.40;99.90;;;;;;4971208;28;20039;-73
2023/02/03 11:01:15;;;;;;;0.57;0.55;;;9.30;99.90;;;;;;4966335;28;19914;-73
2023/02/03 11:03:58;;;;;;;1.83;1.23;;;9.10;99.90;;;;;;4970193;28;20287;-75
2023/02/03 11:06:24;;;;;;;0.98;0.47;;;9.20;99.90;;;;;;4951952;28;20050;-76
2023/02/03 11:08:51;;;;;;;1.40;0.47;;;9.20;99.90;;;;;;4969609;28;20082;-76
2023/02/03 11:11:24;;;;;;;1.75;0.60;;;9.20;99.90;;;;;;4973882;28;20085;-76
2023/02/03 11:14:02;;;;;;;0.98;0.52;;;9.20;99.90;;;;;;4956275;28;20106;-75
2023/02/03 11:16:31;;;;;;;1.90;0.50;;;9.10;99.90;;;;;;4967398;28;20125;-75
2023/02/03 11:19:03;;;;;;;4.85;0.85;;;9.20;99.90;;;;;;4956556;28;20043;-75
2023/02/03 11:21:36;;;;;;;1.27;0.43;;;9.20;99.90;;;;;;4957134;28;20031;-75
2023/02/03 11:24:39;;;;;;;1.05;0.70;;;9.20;99.90;;;;;;4972405;28;20125;-76
2023/02/03 11:27:18;;;;;;;0.75;0.47;;;9.20;99.90;;;;;;4949164;28;20114;-72
2023/02/03 11:29:48;;;;;;;0.25;0.22;;;9.30;99.90;;;;;;4956674;28;20070;-70
2023/02/03 11:32:21;;;;;;;0.50;0.40;;;9.30;99.90;;;;;;4956726;28;20437;-71
2023/02/03 11:34:57;;;;;;;0.30;0.30;;;9.30;99.90;;;;;;4956175;28;20034;-68
2023/02/03 11:37:38;;;;;;;0.20;0.20;;;9.30;99.90;;;;;;4949451;28;20045;-70
2023/02/03 11:40:07;;;;;;;2.63;0.73;;;9.40;99.90;;;;;;4968178;28;20027;-69
2023/02/03 11:42:35;;;;;;;1.05;0.47;;;9.40;99.90;;;;;;4973850;28;20027;-73
2023/02/03 11:45:16;;;;;;;1.67;0.52;;;9.50;99.90;;;;;;4967608;28;20058;-70
2023/02/03 11:48:09;;;;;;;0.43;0.20;;;9.50;99.90;;;;;;4973813;28;20027;-69
2023/02/03 11:50:59;;;;;;;1.45;0.45;;;9.60;99.90;;;;;;4958924;28;20050;-69
2023/02/03 11:53:41;;;;;;;0.38;0.20;;;9.60;99.90;;;;;;4966240;28;20109;-68
2023/02/03 11:56:15;;;;;;;0.95;0.50;;;9.60;99.90;;;;;;4955529;28;20046;-69
2023/02/03 11:59:32;;;;;;;1.73;1.17;;;9.60;99.90;;;;;;4972224;28;20042;-74
2023/02/03 12:02:16;;;;;;;0.43;0.20;;;9.60;99.90;;;;;;4966743;28;20109;-70
2023/02/03 12:04:59;;;;;;;0.35;0.30;;;9.60;99.90;;;;;;4971733;28;20042;-70
2023/02/03 12:07:46;;;;;;;3.90;0.28;;;9.60;99.90;;;;;;4970979;28;20462;-70
2023/02/03 12:10:44;;;;;;;0.68;0.43;;;9.50;99.90;;;;;;4955270;28;20034;-75
2023/02/03 12:13:32;;;;;;;3.63;0.30;;;9.50;99.90;;;;;;4957676;28;20565;-75
2023/02/03 12:16:30;;;;;;;0.55;0.40;;;9.40;99.90;;;;;;4973139;28;20039;-74
2023/02/03 12:19:20;;;;;;;0.15;0.15;;;9.40;99.90;;;;;;4957128;28;20038;-74
2023/02/03 12:22:04;;;;;;;0.47;0.40;;;9.50;99.90;;;;;;4960204;28;20170;-74
2023/02/03 12:24:38;;;;;;;0.22;0.10;;;9.40;99.90;;;;;;4954801;28;20169;-74
2023/02/03 12:27:39;;;;;;;0.52;0.30;;;9.40;99.90;;;;;;4972824;28;20402;-74
2023/02/03 12:30:20;;;;;;;0.98;0.50;;;9.40;99.90;;;;;;4956620;28;20050;-74
2023/02/03 12:32:59;;;;;;;3.90;0.20;;;9.40;99.90;;;;;;4973088;28;20110;-75
2023/02/03 12:35:44;;;;;;;8.77;0.60;;;9.40;99.90;;;;;;4963519;28;20057;-74
2023/02/03 12:38:27;;;;;;;11.60;0.40;;;9.40;99.90;;;;;;4955751;28;20046;-74
2023/02/03 12:41:00;;;;;;;0.40;0.30;;;9.40;99.90;;;;;;4955515;28;20027;-73
2023/02/03 12:43:39;;;;;;;0.63;0.38;;;9.50;99.90;;;;;;4957845;28;20038;-75
2023/02/03 12:46:15;;;;;;;0.70;0.70;;;9.40;99.90;;;;;;4953397;28;20034;-75
2023/02/03 12:49:00;;;;;;;1.73;0.60;;;9.40;99.90;;;;;;4972277;28;20049;-74
2023/02/03 12:51:39;;;;;;;1.17;0.60;;;9.40;99.90;;;;;;4963703;28;20034;-75
2023/02/03 12:54:56;;;;;;;0.52;0.45;;;9.40;99.90;;;;;;4942637;28;20158;-74
2023/02/03 12:57:45;;;;;;;1.70;0.45;;;9.50;99.90;;;;;;4967658;28;20073;-75
2023/02/03 13:00:25;;;;;;;0.82;0.40;;;9.50;99.90;;;;;;4969976;28;20085;-74
2023/02/03 13:03:10;;;;;;;0.50;0.30;;;9.50;99.90;;;;;;4967463;28;20037;-74
2023/02/03 13:06:16;;;;;;;4.13;0.38;;;9.60;99.90;;;;;;4953054;28;20031;-73
2023/02/03 13:09:04;;;;;;;0.57;0.40;;;9.60;99.90;;;;;;4950234;28;20038;-74
2023/02/03 13:11:39;;;;;;;0.30;0.10;;;9.60;99.90;;;;;;4957723;28;20509;-75
2023/02/03 13:14:27;;;;;;;0.47;0.22;;;9.70;99.90;;;;;;4953633;28;20038;-75
2023/02/03 13:17:00;;;;;;;1.05;0.57;;;9.60;99.90;;;;;;4966502;28;20041;-75
2023/02/03 13:19:36;;;;;;;0.50;0.40;;;9.60;99.90;;;;;;4948126;28;20069;-75
2023/02/03 13:22:10;;;;;;;8.68;4.95;;;9.60;99.90;;;;;;4954627;28;20057;-74
2023/02/03 13:24:36;;;;;;;15.93;7.18;;;9.50;99.90;;;;;;4940064;28;20027;-75
2023/02/03 13:27:48;;;;;;;9.13;4.45;;;9.50;99.90;;;;;;4971165;28;20030;-74
2023/02/03 13:30:49;;;;;;;11.45;6.15;;;9.50;99.90;;;;;;4969714;28;20045;-75
2023/02/03 13:33:56;;;;;;;18.17;7.87;;;9.50;99.90;;;;;;4970575;28;20178;-74